AirNav   Everest Fuels
 
 701 users online  

27VA Novant Health UVA Prince William Medical Center Heliport
Manassas, Virginia, USA

GOING TO MANASSAS?


FAA INFORMATION EFFECTIVE 18 JUNE 2020

Location

FAA Identifier: 27VA
Lat/Long: 38-45-57.7700N 077-29-16.6500W
38-45.962833N 077-29.277500W
38.7660472,-77.4879583
(estimated)
Elevation: 243 ft. / 74 m (estimated)
Variation: 09W (1985)
From city: 1 mile W of MANASSAS, VA
Time zone: UTC -4 (UTC -5 during Standard Time)
Zip code: 20110

Heliport Operations

Heliport use: Private use, MEDICAL USE.
Activation date: 08/1985
Control tower: no
ARTCC: WASHINGTON CENTER
FSS: LEESBURG FLIGHT SERVICE STATION
Attendance: UNATNDD
Wind indicator: yes
Segmented circle: no
Lights: SS-SR

Heliport Communications

WX AWOS-3PT at HEF (3 nm SW): PHONE 703-361-6160
WX ASOS at IAD (11 nm N): PHONE 703-661-2990
WX AWOS-3 at HWY (15 nm SW): 120.350 (540-788-4078)
WX AWOS-3 at JYO (19 nm N): 125.225 (703-777-3781)

Nearby radio navigation aids

VOR radial/distance  VOR name  Freq  Var
AMLr194/10.2ARMEL VOR/DME113.5008W
CSNr073/19.2CASANOVA VORTAC116.3006W
DCAr264/21.8WASHINGTON VOR/DME111.0009W
BRVr355/26.6BROOKE VORTAC114.5009W
ADWr275/29.2ANDREWS VORTAC113.1010W
LDNr105/34.0LINDEN VORTAC114.3006W
OTTr286/35.0NOTTINGHAM VORTAC113.7010W
FDKr196/(39.1)FREDERICK VOR109.0008W

 
NDB name  Hdg/Dist  Freq  Var  ID
DAVEE299/18.822309WDAA -.. .- .-
GEORGETOWN249/19.632309WGTN --. - -.
OXONN281/21.533211WDCA -.. -.-. .-
NAILR056/27.135110WMSQ -- ... --.-
SHANNON007/30.023710WEZF . --.. ..-.

Heliport Services

Runway Information

Helipad H1

Dimensions: 55 x 55 ft. / 17 x 17 m
Surface: concrete
Runway edge lights: PERI
Latitude: 38-45.962833N
Longitude: 077-29.277500W
Elevation: 243.0 ft.
Traffic pattern: leftleft

Heliport Ownership and Management from official FAA records

Ownership: Privately-owned
Owner: PRINCE WILLIAM HEALTH SYSTEM
8700 SUDLEY ROAD
MANASSAS, VA 23110
Phone 703-369-8354
Manager: JOHN WILLIAMS
8700 SUDLEY ROAD
MANASSAS, VA 20110
Phone (703) 369-8000

Additional Remarks

A52-H1 20 FT LGT POLE 80 FT FM HELIPAD.
FOR CD CTC POTOMAC APCH AT 866-709-4993.

Instrument Procedures

There are no published instrument procedures at 27VA.

Some nearby airports with instrument procedures:

KHEF - Manassas Regional Airport/Harry P. Davis Field (3 nm SW)
KIAD - Washington Dulles International Airport (11 nm N)
KDAA - Davison Army Airfield (15 nm E)
KHWY - Warrenton-Fauquier Airport (15 nm SW)
KNYG - Quantico Marine Corps Airfield / Turner Field (18 nm SE)
KJYO - Leesburg Executive Airport (19 nm N)
 
Loc | Ops | Rwys | IFR | FBO | Links
Com | Nav | Svcs | Stats | Notes
Area around 27VA (Novant Health UVA Prince William Medical Center Heliport)
 
Road maps at: MapQuest Bing Google
 
Aerial photo
No photo
 
Sectional chart

 
Airport distance calculator
Flying to Novant Health UVA Prince William Medical Center Heliport? Find the distance to fly.

From to 27VA

Sunrise and sunset
Times for 11-Jul-2020
 Local
(UTC-4)
 Zulu
(UTC)
Morning civil twilight05:2509:25
Sunrise05:5609:56
Sunset20:3500:35
Evening civil twilight21:0601:06

Current date and time
Zulu (UTC)  11-Jul-2020 12:38:43
Local (UTC-4)  11-Jul-2020 08:38:43
 
METAR
KHEF 
3nm SW 
111156Z 19004KT 10SM CLR 23/21 A2974 RMK AO2 SLP074 T02330211 10244 20211 53007
KIAD 
10nm N 
111152Z 21003KT 10SM SCT090 SCT120 24/22 A2973 RMK AO2 SLP064 70025 T02390217 10239 20211 53007
KHWY 
15nm SW 
111215Z AUTO 22003KT 10SM CLR 24/21 A2974 RMK AO2 T02410212
KDAA 
15nm E 
111156Z AUTO 19004KT 10SM CLR 25/21 A2973 RMK AO2 SLP070 T02480213 10258 20224 53007 $
KJYO 
18nm N 
111215Z AUTO 00000KT 10SM SCT070 22/21 A2975 RMK AO2
KNYG 
19nm SE 
111156Z AUTO 20006KT 10SM CLR 24/21 A2974 RMK AO2 SLP072 T02440211 10256 20239 53009
TAF
KIAD 
10nm N 
111123Z 1112/1218 25004KT P6SM SCT035 FM111400 27006KT P6SM SCT060 FM111700 27010KT P6SM SCT045 FM120100 29007KT P6SM FEW250 FM121500 25005KT P6SM SCT050
KDAA 
15nm E 
110100Z 1101/1207 27009KT 9999 FEW070 QNH2968INS BECMG 1102/1103 15006KT 9999 BKN050 QNH2971INS TEMPO 1103/1106 VCTS BKN040CB BECMG 1111/1112 28009KT 9999 FEW050 QNH2969INS BECMG 1200/1201 26006KT 9999 SKC QNH2975INS TX32/1120Z TN24/1110Z LAST NO AMDS AFT 1101 NEXT 1309
KNYG 
19nm SE 
1109/1209 27007KT 9999 SCT050 QNH2969INS TEMPO 1117/1123 6000 RA BR BKN050 BECMG 1123/1201 VRB06KT 9999 SCT050 QNH2969INS T32/1119Z T23/1209Z
NOTAMs
Click for the latest NOTAMs
NOTAMs are issued by the DoD/FAA and will open in a separate window not controlled by AirNav.

 

 
 

Would you like to see your business listed on this page?

 If your business provides an interesting product or service to pilots, flight crews, aircraft, or users of the Novant Health UVA Prince William Medical Center Heliport, you should consider listing it here.  To start the listing process, click on the button below
 
Add a business
 

Other Pages about Novant Health UVA Prince William Medical Center Heliport

Update a link
 
Copyright © AirNav, LLC. All rights reserved. Privacy Policy  Contact